Motte Rimrock Reserve, California Weather observations

Data are for 10 minute period ending at time listed.
 Day   Time   Solar   Ave.   Ave.  Ave.  Vector  Max.   Baro.   Total    
  of    of     Rad.   Air    Rel.  Wind   Wind   Wind  Press.  Precip.   
Year   Day            Temp.  Hum.  Speed  Dir.   Gust                    
2014   (PST)  Kw/m2    F      %     mph   deg.    mph    mb.     in.     
-------------------------------------------------------------------------
 294    1:40   0.00   58.5    94    5.4   327     7.5   945.3    0.00 
 294    1:50   0.00   58.3    94    5.8   322     8.6   945.3    0.00 
 294    2:00   0.00   58.0    94    6.6   314     8.8   945.4    0.00 
 294    2:10   0.00   58.0    94    6.9   313    11.2   945.3    0.00 
 294    2:20   0.00   58.1    94    9.6   310    12.0   945.3    0.00 
 294    2:30   0.00   58.4    95    8.6   307    11.1   945.2    0.00 
 294    2:40   0.00   58.2    94    2.9   330     6.5   945.1    0.00 
 294    2:50   0.00   58.4    94    2.2   322     3.1   945.0    0.00 
 294    3:00   0.00   58.0    94    1.2   135     5.1   945.0    0.00 
 294    3:10   0.00   56.2    94    3.0   134     5.1   944.9    0.00 
 294    3:20   0.00   56.2    95    5.9   129     8.1   944.5    0.00 
 294    3:30   0.00   55.8    95    3.1   144     7.2   944.6    0.00 
 294    3:40   0.00   55.4    95    2.5   219     3.4   944.6    0.00 
 294    3:50   0.00   54.8    95    2.5   230     3.1   944.5    0.00 
 294    4:00   0.00   54.8    95    2.0   223     3.9   944.5    0.00 
 294    4:10   0.00   54.9    96    2.8   238     4.2   944.6    0.00 
 294    4:20   0.00   55.1    96    2.0   193     2.9   944.7    0.00 
 294    4:30   0.00   55.2    96    2.1   244     3.7   944.8    0.00 
 294    4:40   0.00   55.4    96    1.3   285     2.7   944.9    0.00 
 294    4:50   0.00   55.7    97    1.9    13     3.4   945.0    0.00 
 294    5:00   0.00   56.0    97    3.6    52     4.7   945.1    0.00 
 294    5:10   0.00   55.8    97    4.4    54     5.0   945.2    0.00 
 294    5:20   0.00   55.8    97    4.4    66     5.2   945.2    0.00 
 294    5:30   0.00   56.2    97    4.5    86     5.8   945.0    0.00 
 294    5:40   0.00   56.4    97    3.1    94     4.7   945.0    0.00 
 294    5:50   0.00   56.3    97    3.7   120     4.7   945.0    0.00 
 294    6:00   0.00   56.3    97    3.2   146     4.5   944.9    0.00 
 294    6:10   0.00   56.4    97    4.0   169     5.6   944.9    0.00 
 294    6:20   0.00   56.2    97    1.9   188     5.1   945.1    0.00 
 294    6:30   0.01   56.4    97    0.8    78     2.1   945.3    0.00 
 294    6:40   0.01   56.8    97    1.3    22     2.6   945.4    0.00 
 294    6:50   0.03   56.6    97    2.2   119     3.8   945.4    0.00 
 294    7:00   0.05   56.5    97    2.4   135     4.5   945.5    0.00 
 294    7:10   0.07   56.6    97    2.1   156     3.2   945.6    0.00 
 294    7:20   0.09   57.0    97    3.4   144     4.7   945.7    0.00 
 294    7:30   0.08   57.2    97    3.8   108     5.0   945.8    0.00 
 294    7:40   0.09   57.5    97    2.5   104     4.4   946.0    0.00 
 294    7:50   0.11   57.2    97    2.6   130     4.5   946.1    0.00 
 294    8:00   0.15   57.4    97    3.1   163     4.9   946.1    0.00 
 294    8:10   0.20   57.4    98    3.1   219     4.3   946.2    0.00 
 294    8:20   0.26   58.1   100    2.8   232     4.7   946.2    0.00 
 294    8:30   0.33   59.1   100    1.1   188     2.4   946.2    0.00 
 294    8:40   0.37   60.6   100    0.5   160     2.6   946.3    0.00 
 294    8:50   0.34   60.5   100    3.1   119     4.8   946.3    0.00 
 294    9:00   0.34   59.7   100    3.6   110     5.2   946.3    0.00 
 294    9:10   0.47   60.2   100    2.1   115     3.7   946.3    0.00 
 294    9:20   0.56   61.4   100    1.7    92     3.7   946.4    0.00 
 294    9:30   0.58   61.7   100    3.7    83     5.7   946.2    0.00 
 294    9:40   0.60   62.7    94    3.7    87     5.5   946.2    0.00 
 294    9:50   0.63   65.2    74    2.5    75     4.2   946.2    0.00 
 294   10:00   0.65   67.3    62    2.7    71     5.1   946.3    0.00 
 294   10:10   0.66   68.8    59    2.2    68     4.4   946.2    0.00 
 294   10:20   0.68   70.7    55    2.8    76     5.8   946.1    0.00 
 294   10:30   0.69   70.9    55    3.2    58     5.4   946.0    0.00 
 294   10:40   0.70   71.8    53    3.4    78     5.5   945.9    0.00 
 294   10:50   0.72   72.7    51    3.8    91     6.1   945.7    0.00 
 294   11:00   0.72   74.5    47    1.3    96     4.2   945.6    0.00 
 294   11:10   0.72   75.4    44    3.1    49     7.2   945.4    0.00 
 294   11:20   0.72   75.8    43    2.3    66     5.8   945.2    0.00 
 294   11:30   0.73   76.8    39    3.4     6     6.9   945.0    0.00 
 294   11:40   0.72   76.6    39    3.3    52     8.1   944.9    0.00 
 294   11:50   0.72   76.9    36    3.6    71     6.1   944.8    0.00 
 294   12:00   0.72   78.2    34    3.4    78     6.9   944.7    0.00 
 294   12:10   0.71   78.6    29    6.9   344    10.4   944.7    0.00 
 294   12:20   0.70   78.5    30    6.4   310    11.3   944.6    0.00 
 294   12:30   0.69   77.9    32    9.3   313    14.7   944.4    0.00 
 294   12:40   0.69   77.3    37   11.5   308    17.3   944.3    0.00 
 294   12:50   0.68   76.5    37   11.5   308    17.0   944.3    0.00 
 294   13:00   0.66   77.1    34   10.1   316    15.1   944.2    0.00 
 294   13:10   0.66   77.2    36    9.8   320    14.2   944.1    0.00 
 294   13:20   0.66   77.0    38   10.3   312    14.8   944.0    0.00 
 294   13:30   0.59   77.1    38    8.5   313    13.3   943.8    0.00 
 294   13:40   0.45   76.6    39    8.1   331    12.6   943.8    0.00 
 294   13:50   0.49   77.1    38    9.5   322    13.7   943.7    0.00 
 294   14:00   0.51   77.3    37    9.3   321    14.1   943.6    0.00 
 294   14:10   0.52   77.3    35    8.9   314    13.0   943.6    0.00 
 294   14:20   0.49   77.7    34    8.1   320    11.5   943.5    0.00 
 294   14:30   0.47   77.9    34    6.9   336    10.4   943.4    0.00 
 294   14:40   0.43   77.3    35    5.8   340    12.3   943.4    0.00 
 294   14:50   0.41   77.6    34    8.4   317    12.3   943.3    0.00 
 294   15:00   0.37   77.7    35    8.9   313    13.1   943.3    0.00 
 294   15:10   0.36   77.8    34   10.2   322    13.6   943.3    0.00 
 294   15:20   0.28   77.2    36    8.8   320    14.2   943.3    0.00 
 294   15:30   0.16   77.0    37    9.4   324    13.8   943.3    0.00 
 294   15:40   0.26   76.3    39   11.3   309    15.5   943.3    0.00 
 294   15:50   0.26   76.2    40   11.8   313    16.7   943.3    0.00 
 294   16:00   0.22   76.4    39   10.4   306    14.5   943.3    0.00 
 294   16:10   0.18   75.8    40   11.8   316    15.5   943.3    0.00 
 294   16:20   0.16   75.5    40   12.4   311    15.9   943.3    0.00 
 294   16:30   0.13   75.1    38   13.2   311    15.9   943.4    0.00 
 294   16:40   0.08   74.7    38   13.1   309    16.4   943.6    0.00 
 294   16:50   0.06   73.7    40   13.3   300    17.3   943.7    0.00 
 294   17:00   0.03   72.8    41   12.8   306    17.1   943.9    0.00 
 294   17:10   0.01   71.7    43   12.9   301    15.9   943.9    0.00 
 294   17:20   0.00   70.9    45   12.8   300    15.4   943.8    0.00 
 294   17:30   0.00   70.2    49   12.7   301    15.8   943.9    0.00 
 294   17:40   0.00   69.6    53   13.2   299    16.3   944.1    0.00 
 294   17:50   0.00   68.9    56   13.5   299    16.4   944.2    0.00 
 294   18:00   0.00   68.3    59   12.9   298    15.3   944.2    0.00 
 294   18:10   0.00   67.9    61   11.9   301    14.2   944.2    0.00 
 294   18:20   0.00   67.7    61   11.3   301    13.5   944.2    0.00 
 294   18:30   0.00   67.4    60   11.0   302    13.9   944.2    0.00 
 294   18:40   0.00   67.1    60   10.7   304    14.0   944.3    0.00 
 294   18:50   0.00   66.7    62   13.1   307    15.9   944.4    0.00 
 294   19:00   0.00   66.3    64   13.2   304    16.2   944.5    0.00 
 294   19:10   0.00   65.9    65   13.0   300    16.1   944.5    0.00 
 294   19:20   0.00   65.7    66   12.0   305    15.3   944.6    0.00 
 294   19:30   0.00   65.2    68   12.6   308    15.1   944.7    0.00 
 294   19:40   0.00   65.0    68   12.3   302    16.8   944.7    0.00 
 294   19:50   0.00   65.0    68   11.6   304    14.3   944.7    0.00 
 294   20:00   0.00   64.6    70    9.2   309    12.6   944.9    0.00 
 294   20:10   0.00   64.1    71    9.5   306    12.1   944.9    0.00 
 294   20:20   0.00   64.2    71    8.8   303    11.0   945.0    0.00 
 294   20:30   0.00   63.8    71    7.8   310     9.8   945.1    0.00 
 294   20:40   0.00   63.4    72    8.3   314    10.1   945.2    0.00 
 294   20:50   0.00   63.2    73    8.6   312    10.2   945.2    0.00 
 294   21:00   0.00   63.1    74    5.8   311     8.8   945.1    0.00 
 294   21:10   0.00   63.1    74    4.1   307     6.1   945.1    0.00 
 294   21:20   0.00   63.2    74    3.0   291     4.2   945.2    0.00 
 294   21:30   0.00   63.4    73    2.5   304     3.2   945.1    0.00 
 294   21:40   0.00   63.7    72    2.3   312     3.1   945.1    0.00 
 294   21:50   0.00   63.8    71    2.0   307     2.7   945.1    0.00 
 294   22:00   0.00   63.9    70    1.8   292     2.5   945.1    0.00 
 294   22:10   0.00   63.8    70    2.1   310     2.6   945.2    0.00 
 294   22:20   0.00   63.8    70    2.2   290     2.6   945.2    0.00 
 294   22:30   0.00   63.9    69    1.9   303     2.6   945.2    0.00 
 294   22:40   0.00   63.9    69    3.0   318     4.5   945.2    0.00 
 294   22:50   0.00   63.1    70    4.8   318     6.1   945.2    0.00 
 294   23:00   0.00   62.7    71    6.2   322     6.8   945.2    0.00 
 294   23:10   0.00   62.3    73    5.3   332     6.4   945.2    0.00 
 294   23:20   0.00   61.7    74    5.3   332     6.6   945.2    0.00 
 294   23:30   0.00   61.9    74    4.0   327     5.3   945.2    0.00 
 294   23:40   0.00   62.7    72    3.7   326     4.4   945.1    0.00 
 294   23:50   0.00   62.4    72    4.0   330     5.3   945.2    0.00 
 295    0:00   0.00   61.9    73    5.2   327     5.6   945.3    0.00 
 295    0:10   0.00   62.3    73    3.1   336     4.6   945.2    0.00 
 295    0:20   0.00   63.4    71    1.4    47     2.0   945.0    0.00 
 295    0:30   0.00   63.5    71    1.2    91     2.5   944.9    0.00 
 295    0:40   0.00   63.6    70    3.5   108     4.2   944.8    0.00 
 295    0:50   0.00   62.5    72    1.2   183     2.4   944.9    0.00 
 295    1:00   0.00   61.3    75    0.9   180     1.8   944.9    0.00 
 295    1:10   0.00   60.7    76    2.5   142     2.9   944.9    0.00 
 295    1:20   0.00   60.2    77    2.8   121     3.4   944.9    0.00 
 295    1:30   0.00   59.7    79    3.8   119     4.5   944.7    0.00 

Return to Motte Rimrock Reserve graphs page.


Western Regional Climate Center,wrcc@dri.edu